Time;durP1;ratioP1;P1;durP2;ratioP2;P2;SDS_P1;SDS_P2;PMS_P1;PMS_P2;Temp;Humidity;BMP_temperature;BMP_pressure;BME280_temperature;BME280_humidity;BME280_pressure;Samples;Min_cycle;Max_cycle;Signal;HPM_P1;HPM_P2
2023/10/05 00:01:05;;;;;;;11.57;7.23;;;13.70;85.70;;;;;;4979826;28;20171;-91
2023/10/05 00:03:30;;;;;;;11.00;7.67;;;13.70;85.60;;;;;;4989737;28;20147;-90
2023/10/05 00:06:04;;;;;;;11.73;6.43;;;13.70;85.70;;;;;;4988916;28;20293;-91
2023/10/05 00:08:31;;;;;;;8.97;6.73;;;13.70;85.90;;;;;;4987181;28;20178;-91
2023/10/05 00:10:58;;;;;;;11.83;7.57;;;13.70;85.90;;;;;;4988077;28;20170;-91
2023/10/05 00:13:23;;;;;;;15.67;6.93;;;13.70;85.90;;;;;;4989686;28;20678;-92
2023/10/05 00:15:50;;;;;;;17.27;12.87;;;13.70;85.90;;;;;;4987549;28;20195;-91
2023/10/05 00:18:19;;;;;;;14.60;13.20;;;13.70;85.80;;;;;;4987313;28;20230;-92
2023/10/05 00:20:48;;;;;;;21.50;13.63;;;13.80;85.80;;;;;;4986250;28;20170;-92
2023/10/05 00:23:14;;;;;;;15.40;13.30;;;13.80;85.70;;;;;;4985490;28;20182;-91
2023/10/05 00:25:39;;;;;;;21.20;14.00;;;13.80;85.80;;;;;;4986119;28;20202;-91
2023/10/05 00:28:09;;;;;;;14.80;13.20;;;13.80;85.80;;;;;;4987575;28;20189;-91
2023/10/05 00:30:35;;;;;;;12.23;7.13;;;13.80;85.70;;;;;;4987499;28;20162;-91
2023/10/05 00:33:04;;;;;;;10.73;7.00;;;13.70;85.60;;;;;;4986299;28;20593;-91
2023/10/05 00:35:33;;;;;;;7.70;6.60;;;13.80;85.50;;;;;;4986126;28;20194;-91
2023/10/05 00:38:16;;;;;;;9.90;6.37;;;13.80;85.60;;;;;;4988727;28;20278;-91
2023/10/05 00:43:25;;;;;;;12.53;7.10;;;13.70;85.70;;;;;;4989118;28;20162;-91
2023/10/05 00:45:52;;;;;;;10.23;7.50;;;13.70;85.80;;;;;;4987583;28;20245;-91
2023/10/05 00:48:41;;;;;;;12.50;7.30;;;13.80;85.70;;;;;;4987734;28;20183;-92
2023/10/05 00:51:13;;;;;;;14.23;7.50;;;13.80;85.60;;;;;;4991739;28;20159;-91
2023/10/05 00:53:39;;;;;;;13.63;7.00;;;13.70;86.00;;;;;;4992417;28;20643;-91
2023/10/05 00:56:12;;;;;;;17.27;13.70;;;13.70;86.10;;;;;;4988055;28;20175;-91
2023/10/05 00:58:44;;;;;;;16.70;15.00;;;13.70;85.80;;;;;;4990243;28;20242;-91
2023/10/05 01:01:22;;;;;;;16.93;15.33;;;13.80;85.90;;;;;;4989155;28;20226;-92
2023/10/05 01:04:20;;;;;;;10.40;7.23;;;13.80;86.10;;;;;;4990957;28;20178;-92
2023/10/05 01:06:55;;;;;;;11.47;6.87;;;13.80;86.00;;;;;;4990308;28;20182;-91
2023/10/05 01:14:51;;;;;;;16.17;9.13;;;13.80;85.90;;;;;;4990892;28;20234;-91
2023/10/05 01:17:27;;;;;;;14.03;7.10;;;13.80;85.70;;;;;;4991685;28;20202;-91
2023/10/05 01:19:56;;;;;;;15.10;10.63;;;13.80;85.80;;;;;;4992427;28;20167;-91
2023/10/05 01:22:23;;;;;;;14.93;13.43;;;13.80;86.00;;;;;;4988872;28;20170;-91
2023/10/05 01:24:50;;;;;;;25.20;14.87;;;13.80;85.60;;;;;;4992074;28;20183;-91
2023/10/05 01:27:17;;;;;;;11.83;6.83;;;13.80;85.80;;;;;;4987361;28;20178;-91
2023/10/05 01:29:43;;;;;;;14.23;7.60;;;13.80;85.70;;;;;;4987856;28;20274;-91
2023/10/05 01:32:10;;;;;;;17.13;13.93;;;13.80;85.60;;;;;;4990879;28;20194;-92
2023/10/05 01:34:36;;;;;;;30.77;15.27;;;13.90;85.60;;;;;;4994619;28;20197;-92
2023/10/05 01:37:03;;;;;;;21.73;16.47;;;13.90;85.50;;;;;;4993856;28;20202;-91
2023/10/05 01:39:32;;;;;;;19.17;9.43;;;13.90;85.60;;;;;;4996989;28;20655;-92
2023/10/05 01:41:59;;;;;;;17.17;7.40;;;13.80;85.70;;;;;;4994845;28;20217;-92
2023/10/05 01:44:25;;;;;;;17.03;6.90;;;13.90;85.50;;;;;;4989121;28;20253;-91
2023/10/05 01:46:55;;;;;;;16.87;7.10;;;13.90;85.30;;;;;;4995584;28;20171;-92
2023/10/05 01:49:20;;;;;;;12.97;7.53;;;13.90;85.60;;;;;;4994627;28;20163;-91
2023/10/05 01:51:47;;;;;;;16.60;7.10;;;13.90;85.80;;;;;;4995629;28;20179;-92
2023/10/05 01:54:15;;;;;;;14.47;6.93;;;13.90;85.80;;;;;;4988287;28;20254;-91
2023/10/05 01:56:43;;;;;;;10.80;6.57;;;13.90;85.40;;;;;;4988085;28;20249;-91
2023/10/05 01:59:10;;;;;;;11.17;6.83;;;13.80;85.60;;;;;;4992754;28;20226;-91
2023/10/05 02:01:39;;;;;;;19.43;7.00;;;13.90;85.60;;;;;;4988765;28;20171;-91
2023/10/05 02:04:09;;;;;;;20.10;7.60;;;13.90;85.40;;;;;;4990081;28;20187;-92
2023/10/05 02:06:42;;;;;;;12.37;7.53;;;13.90;85.40;;;;;;4988967;28;20190;-91
2023/10/05 02:09:09;;;;;;;13.30;7.10;;;13.90;85.40;;;;;;4988821;28;20171;-91
2023/10/05 02:11:36;;;;;;;7.33;6.40;;;14.00;85.30;;;;;;4986881;28;20177;-90
2023/10/05 02:14:04;;;;;;;11.30;7.30;;;13.90;85.40;;;;;;4991318;28;20199;-91
2023/10/05 02:16:33;;;;;;;9.93;7.23;;;13.90;85.50;;;;;;4994437;28;20254;-90
2023/10/05 02:19:04;;;;;;;12.07;6.93;;;13.90;85.50;;;;;;4988024;28;20230;-91
2023/10/05 02:21:35;;;;;;;12.90;7.17;;;13.90;85.50;;;;;;4987434;28;20165;-91
2023/10/05 02:24:16;;;;;;;14.57;7.40;;;13.90;85.50;;;;;;4987128;28;20191;-91
2023/10/05 02:27:09;;;;;;;13.13;6.70;;;13.90;85.40;;;;;;4985442;28;20170;-92
2023/10/05 02:29:35;;;;;;;10.77;6.43;;;13.80;85.70;;;;;;4988863;28;20183;-91
2023/10/05 02:34:28;;;;;;;12.50;7.10;;;13.90;85.70;;;;;;4987449;28;20194;-91
2023/10/05 02:36:54;;;;;;;9.77;6.70;;;13.90;85.40;;;;;;4986557;28;20199;-91
2023/10/05 02:39:21;;;;;;;14.70;7.40;;;13.90;85.60;;;;;;4985844;28;20175;-91
2023/10/05 02:41:50;;;;;;;13.13;7.10;;;13.90;85.70;;;;;;4986112;28;20171;-91
2023/10/05 02:46:47;;;;;;;10.33;7.37;;;13.90;85.60;;;;;;4989907;28;20194;-91
2023/10/05 02:49:18;;;;;;;13.47;7.20;;;13.90;85.50;;;;;;4988899;28;20207;-91
2023/10/05 02:51:44;;;;;;;14.97;7.13;;;13.90;85.70;;;;;;4984706;28;20187;-91
2023/10/05 02:54:10;;;;;;;11.07;7.20;;;14.00;85.60;;;;;;4988061;28;20203;-92
2023/10/05 02:56:36;;;;;;;15.90;7.47;;;14.00;85.70;;;;;;4987298;28;20237;-91
2023/10/05 02:59:07;;;;;;;13.80;7.23;;;14.00;85.80;;;;;;4988079;28;20175;-91
2023/10/05 03:01:34;;;;;;;17.43;7.50;;;14.00;85.90;;;;;;4986229;28;20167;-91
2023/10/05 03:04:09;;;;;;;15.23;7.17;;;14.00;86.10;;;;;;4987736;28;20218;-92
2023/10/05 03:06:35;;;;;;;16.27;7.27;;;14.00;86.10;;;;;;4987747;28;20186;-91
2023/10/05 03:09:07;;;;;;;15.30;7.37;;;14.00;85.90;;;;;;4986339;28;20163;-91
2023/10/05 03:11:39;;;;;;;10.40;7.07;;;14.00;85.80;;;;;;4986443;28;20157;-92
2023/10/05 03:14:09;;;;;;;11.73;7.07;;;14.00;85.60;;;;;;4985309;28;20195;-91
2023/10/05 03:16:43;;;;;;;13.40;6.73;;;14.00;86.10;;;;;;4987072;28;20171;-90
2023/10/05 03:19:12;;;;;;;12.77;6.30;;;13.90;86.30;;;;;;4985839;28;20185;-91
2023/10/05 03:21:37;;;;;;;15.23;6.60;;;14.00;86.30;;;;;;4986901;28;20171;-91
2023/10/05 03:24:03;;;;;;;13.47;6.20;;;13.90;86.30;;;;;;4985248;28;20198;-91
2023/10/05 03:26:29;;;;;;;14.17;6.73;;;14.00;86.20;;;;;;4985640;28;20181;-92
2023/10/05 03:28:54;;;;;;;12.23;6.97;;;13.90;86.10;;;;;;4978376;28;20186;-91
2023/10/05 03:31:32;;;;;;;17.13;6.60;;;13.90;86.30;;;;;;4986259;28;20227;-92
2023/10/05 03:33:57;;;;;;;9.27;6.20;;;13.90;86.50;;;;;;4986631;28;20194;-90
2023/10/05 03:36:23;;;;;;;11.67;6.40;;;13.90;86.60;;;;;;4985355;28;20213;-91
2023/10/05 03:38:58;;;;;;;14.03;6.70;;;13.90;86.50;;;;;;4982831;28;20682;-91
2023/10/05 03:41:26;;;;;;;14.10;6.73;;;14.00;86.30;;;;;;4986719;28;20162;-91
2023/10/05 03:43:55;;;;;;;9.40;5.73;;;13.90;86.70;;;;;;4985249;28;20214;-91
2023/10/05 03:46:24;;;;;;;12.30;6.60;;;13.80;86.70;;;;;;4985946;28;20599;-91
2023/10/05 03:48:51;;;;;;;20.50;7.87;;;13.80;86.80;;;;;;4984430;28;20181;-91
2023/10/05 03:51:16;;;;;;;17.20;6.50;;;13.90;86.50;;;;;;4986290;28;20178;-91
2023/10/05 03:53:51;;;;;;;10.97;6.53;;;13.90;86.40;;;;;;4985681;28;20192;-91
2023/10/05 03:56:23;;;;;;;14.40;6.73;;;13.80;86.50;;;;;;4984283;28;20193;-90
2023/10/05 03:58:49;;;;;;;16.03;6.77;;;13.90;86.70;;;;;;4984997;28;20202;-91
2023/10/05 04:01:15;;;;;;;14.20;7.70;;;13.90;86.80;;;;;;4987150;28;20201;-93
2023/10/05 04:03:46;;;;;;;10.33;6.40;;;13.80;86.90;;;;;;4985810;28;20175;-91
2023/10/05 04:06:23;;;;;;;16.90;7.30;;;13.80;86.90;;;;;;4983256;28;20214;-92
2023/10/05 04:08:59;;;;;;;15.07;6.67;;;13.80;87.10;;;;;;4984869;28;20154;-91
2023/10/05 04:11:27;;;;;;;12.97;6.23;;;13.80;86.90;;;;;;4982636;28;20165;-91
2023/10/05 04:13:54;;;;;;;15.37;6.93;;;13.90;86.90;;;;;;4983099;28;20174;-90
2023/10/05 04:16:28;;;;;;;9.27;5.80;;;13.90;87.00;;;;;;4983056;28;20183;-90
2023/10/05 04:18:58;;;;;;;9.43;6.40;;;13.90;87.00;;;;;;4984372;28;20190;-91
2023/10/05 04:21:25;;;;;;;17.03;7.03;;;13.90;87.10;;;;;;4982651;28;20242;-91
2023/10/05 04:23:50;;;;;;;16.03;6.10;;;13.90;87.10;;;;;;4982770;28;20232;-90
2023/10/05 04:26:20;;;;;;;17.33;6.50;;;13.90;87.20;;;;;;4986579;28;20195;-91
2023/10/05 04:28:52;;;;;;;14.87;6.20;;;13.90;87.30;;;;;;4982458;28;20190;-91
2023/10/05 04:31:22;;;;;;;14.43;5.87;;;13.90;87.00;;;;;;4983535;28;20175;-91
2023/10/05 04:33:50;;;;;;;15.80;12.00;;;14.00;87.00;;;;;;4982831;28;20193;-91
2023/10/05 04:36:17;;;;;;;18.43;11.73;;;14.00;87.10;;;;;;4976763;28;20229;-91
2023/10/05 04:38:43;;;;;;;12.77;11.40;;;13.90;87.50;;;;;;4982751;28;20202;-92
2023/10/05 04:41:12;;;;;;;19.00;11.33;;;14.00;87.60;;;;;;4988348;28;20194;-90
2023/10/05 04:43:39;;;;;;;20.37;12.77;;;13.90;87.50;;;;;;4989699;28;20183;-91
2023/10/05 04:46:05;;;;;;;17.83;10.20;;;14.00;87.70;;;;;;4992130;28;20174;-92
2023/10/05 04:48:31;;;;;;;13.37;5.27;;;13.90;88.30;;;;;;4991146;28;20205;-91
2023/10/05 04:51:00;;;;;;;13.37;5.70;;;13.80;88.60;;;;;;4990132;28;20261;-91
2023/10/05 04:53:27;;;;;;;12.07;5.60;;;13.90;88.50;;;;;;4991220;28;20178;-91
2023/10/05 04:56:00;;;;;;;12.20;5.50;;;13.80;88.60;;;;;;4987494;28;20198;-91
2023/10/05 04:58:52;;;;;;;11.07;5.80;;;13.80;89.00;;;;;;4985345;28;20210;-91
2023/10/05 05:01:35;;;;;;;14.23;5.70;;;13.70;89.40;;;;;;4984799;28;20210;-91
2023/10/05 05:04:27;;;;;;;9.83;5.10;;;13.70;89.60;;;;;;4983728;28;20202;-90
2023/10/05 05:06:53;;;;;;;13.50;5.57;;;13.60;90.00;;;;;;4982924;28;20806;-90
2023/10/05 05:09:19;;;;;;;10.50;5.20;;;13.60;90.50;;;;;;4981834;28;20187;-90
2023/10/05 05:11:47;;;;;;;11.67;5.17;;;13.50;90.40;;;;;;4982023;28;20206;-90
2023/10/05 05:14:12;;;;;;;14.17;6.20;;;13.50;90.50;;;;;;4981194;28;20205;-91
2023/10/05 05:16:40;;;;;;;17.10;5.70;;;13.60;90.50;;;;;;4981012;28;20187;-91
2023/10/05 05:19:06;;;;;;;17.07;6.03;;;13.50;90.50;;;;;;4982470;28;20222;-90
2023/10/05 05:21:34;;;;;;;15.43;6.20;;;13.60;90.60;;;;;;4982613;28;20167;-91
2023/10/05 05:24:00;;;;;;;13.93;6.63;;;13.50;90.70;;;;;;4980355;28;20222;-90
2023/10/05 05:26:26;;;;;;;11.63;5.47;;;13.50;91.00;;;;;;4980494;28;20263;-90
2023/10/05 05:28:53;;;;;;;13.37;6.13;;;13.40;91.50;;;;;;4978754;28;20642;-90
2023/10/05 05:31:18;;;;;;;13.87;5.67;;;13.30;92.00;;;;;;4976831;28;20179;-91
2023/10/05 05:33:44;;;;;;;16.57;7.13;;;13.30;92.10;;;;;;4977093;28;20230;-90
2023/10/05 05:36:13;;;;;;;18.00;6.07;;;13.30;92.50;;;;;;4977605;28;20547;-89
2023/10/05 05:38:40;;;;;;;17.20;9.97;;;13.30;92.50;;;;;;4976297;28;20289;-90
2023/10/05 05:41:12;;;;;;;17.17;10.10;;;13.30;92.70;;;;;;4977104;28;20254;-90
2023/10/05 05:43:41;;;;;;;14.27;11.27;;;13.30;92.80;;;;;;4976610;28;20560;-90
2023/10/05 05:46:14;;;;;;;18.70;6.13;;;13.30;92.80;;;;;;4976829;28;20174;-91
2023/10/05 05:48:43;;;;;;;20.40;6.83;;;13.30;92.90;;;;;;4977861;28;20213;-90
2023/10/05 05:51:14;;;;;;;16.97;7.07;;;13.20;93.10;;;;;;4977090;28;20186;-90
2023/10/05 05:53:44;;;;;;;17.77;10.60;;;13.20;93.10;;;;;;4975813;28;20199;-90
2023/10/05 05:56:16;;;;;;;21.27;11.83;;;13.30;93.20;;;;;;4975739;28;20269;-90
2023/10/05 05:58:44;;;;;;;16.03;7.90;;;13.20;93.20;;;;;;4976882;28;20557;-89
2023/10/05 06:01:12;;;;;;;19.13;7.80;;;13.30;93.30;;;;;;4976676;28;20167;-89
2023/10/05 06:03:38;;;;;;;25.53;11.13;;;13.30;93.30;;;;;;4976665;28;20589;-88
2023/10/05 06:06:03;;;;;;;21.93;12.60;;;13.20;93.30;;;;;;4976605;28;20269;-89
2023/10/05 06:08:29;;;;;;;18.50;13.53;;;13.30;93.30;;;;;;4975797;28;20175;-89
2023/10/05 06:10:56;;;;;;;17.87;7.73;;;13.30;93.40;;;;;;4975610;28;20179;-90
2023/10/05 06:13:22;;;;;;;18.60;8.63;;;13.30;93.40;;;;;;4975546;28;20174;-88
2023/10/05 06:15:48;;;;;;;14.70;11.90;;;13.20;93.40;;;;;;4975107;28;20198;-89
2023/10/05 06:18:13;;;;;;;21.07;13.37;;;13.20;93.60;;;;;;4974969;28;20234;-90
2023/10/05 06:20:40;;;;;;;19.87;10.27;;;13.20;93.80;;;;;;4976500;28;20226;-90
2023/10/05 06:23:06;;;;;;;14.20;7.87;;;13.20;93.90;;;;;;4976293;28;20197;-89
2023/10/05 06:25:31;;;;;;;12.77;8.23;;;13.20;94.00;;;;;;4974768;28;20222;-90
2023/10/05 06:27:57;;;;;;;14.57;9.10;;;13.20;94.10;;;;;;4974896;28;20175;-90
2023/10/05 06:30:23;;;;;;;18.43;9.57;;;13.20;94.20;;;;;;4976010;28;20182;-90
2023/10/05 06:32:49;;;;;;;14.90;9.67;;;13.20;94.40;;;;;;4974790;28;20237;-90
2023/10/05 06:35:14;;;;;;;10.77;8.90;;;13.20;94.50;;;;;;4976939;28;20186;-91
2023/10/05 06:37:41;;;;;;;14.73;9.50;;;13.20;94.50;;;;;;4975818;28;20241;-90
2023/10/05 06:40:13;;;;;;;11.93;8.83;;;13.20;94.50;;;;;;4975971;28;20167;-90
2023/10/05 06:42:43;;;;;;;12.47;8.47;;;13.20;94.60;;;;;;4975048;28;20658;-91
2023/10/05 06:45:13;;;;;;;9.40;8.17;;;13.30;94.60;;;;;;4974566;28;20203;-90
2023/10/05 06:47:39;;;;;;;9.90;8.10;;;13.30;94.60;;;;;;4974723;28;20569;-91
2023/10/05 06:50:09;;;;;;;11.40;7.67;;;13.30;94.60;;;;;;4976114;28;20685;-90
2023/10/05 06:52:36;;;;;;;8.90;7.90;;;13.30;94.60;;;;;;4974771;28;20190;-90
2023/10/05 06:55:07;;;;;;;9.43;7.70;;;13.30;94.70;;;;;;4975985;28;20191;-90
2023/10/05 06:57:35;;;;;;;9.03;7.33;;;13.30;94.70;;;;;;4975299;28;20195;-90
2023/10/05 07:00:11;;;;;;;10.93;7.90;;;13.30;94.70;;;;;;4974405;28;20226;-89
2023/10/05 07:02:37;;;;;;;10.10;8.17;;;13.30;94.80;;;;;;4973678;28;20166;-90
2023/10/05 07:05:05;;;;;;;10.37;8.90;;;13.30;94.80;;;;;;4974596;28;20207;-90
2023/10/05 07:07:32;;;;;;;9.37;8.30;;;13.30;94.80;;;;;;4975435;28;20726;-92
2023/10/05 07:09:57;;;;;;;10.33;8.70;;;13.30;94.90;;;;;;4975747;28;20262;-91
2023/10/05 07:12:24;;;;;;;10.50;8.80;;;13.30;94.90;;;;;;4975528;28;20206;-90
2023/10/05 07:14:50;;;;;;;9.00;8.20;;;13.40;95.00;;;;;;4974974;28;20194;-89
2023/10/05 07:17:16;;;;;;;17.07;8.23;;;13.30;95.00;;;;;;4975129;28;20572;-92
2023/10/05 07:19:47;;;;;;;10.70;8.00;;;13.40;95.00;;;;;;4973850;28;20174;-91
2023/10/05 07:22:13;;;;;;;8.57;7.40;;;13.40;95.10;;;;;;4975107;28;20162;-88
2023/10/05 07:24:40;;;;;;;9.23;7.00;;;13.40;95.10;;;;;;4973744;28;20694;-91
2023/10/05 07:27:05;;;;;;;8.17;7.20;;;13.40;95.10;;;;;;4976426;28;20193;-92
2023/10/05 07:29:31;;;;;;;8.27;7.30;;;13.50;95.20;;;;;;4975470;28;20179;-93
2023/10/05 07:31:56;;;;;;;8.70;7.80;;;13.50;95.20;;;;;;4973697;28;20182;-88
2023/10/05 07:34:22;;;;;;;8.20;7.50;;;13.50;95.20;;;;;;4974820;28;20293;-90
2023/10/05 07:36:47;;;;;;;7.97;7.27;;;13.50;95.20;;;;;;4974772;28;20269;-92
2023/10/05 07:39:14;;;;;;;10.33;7.90;;;13.50;95.20;;;;;;4974580;28;20217;-90
2023/10/05 07:41:40;;;;;;;8.73;7.73;;;13.50;95.20;;;;;;4973476;28;20736;-89
2023/10/05 07:44:05;;;;;;;8.00;7.40;;;13.50;95.20;;;;;;4973527;28;20277;-92
2023/10/05 07:46:32;;;;;;;8.00;7.30;;;13.50;95.20;;;;;;4973583;28;20552;-90
2023/10/05 07:48:58;;;;;;;7.80;7.10;;;13.50;95.30;;;;;;4975400;28;20544;-88
2023/10/05 07:51:24;;;;;;;8.70;8.10;;;13.60;95.30;;;;;;4997452;28;20213;-94
2023/10/05 07:53:55;;;;;;;9.07;8.00;;;13.70;95.30;;;;;;4999216;28;20191;-94
2023/10/05 07:56:21;;;;;;;8.63;7.83;;;13.70;95.30;;;;;;4998903;28;20171;-94
2023/10/05 07:58:46;;;;;;;7.67;7.17;;;13.70;95.30;;;;;;4993886;28;20209;-93
2023/10/05 08:01:13;;;;;;;7.33;6.80;;;13.80;95.30;;;;;;4982508;28;20246;-92
2023/10/05 08:03:40;;;;;;;7.40;6.90;;;13.80;95.30;;;;;;4991519;28;20178;-95
2023/10/05 08:06:09;;;;;;;12.63;11.63;;;13.80;95.30;;;;;;4994887;28;20269;-93
2023/10/05 08:08:35;;;;;;;13.03;12.17;;;13.80;95.20;;;;;;4998866;28;20154;-95
2023/10/05 08:11:01;;;;;;;15.70;14.53;;;13.80;95.30;;;;;;4994587;28;20238;-96
2023/10/05 08:13:27;;;;;;;8.30;7.50;;;13.80;95.20;;;;;;4999387;28;20219;-95
2023/10/05 08:15:53;;;;;;;8.47;7.70;;;13.80;95.20;;;;;;5002814;28;20246;-95
2023/10/05 08:18:19;;;;;;;12.90;12.00;;;13.80;95.20;;;;;;5003260;28;20286;-95
2023/10/05 08:20:44;;;;;;;13.83;12.60;;;14.00;95.30;;;;;;5001318;28;20170;-94
2023/10/05 08:23:10;;;;;;;14.17;13.27;;;14.00;95.20;;;;;;4993055;28;20194;-95
2023/10/05 08:25:36;;;;;;;7.90;7.17;;;14.00;95.20;;;;;;4984491;28;20277;-92
2023/10/05 08:28:02;;;;;;;8.45;7.75;;;13.90;95.10;;;;;;4984615;28;20178;-93
2023/10/05 08:30:33;;;;;;;13.00;12.03;;;14.00;95.20;;;;;;5003017;28;20178;-94
2023/10/05 08:33:09;;;;;;;13.90;12.80;;;14.00;95.20;;;;;;5111916;23;20230;-92
2023/10/05 08:35:43;;;;;;;8.17;7.57;;;14.00;95.20;;;;;;5051803;23;20222;-95
2023/10/05 08:38:15;;;;;;;8.38;7.65;;;14.00;95.10;;;;;;4995391;28;20214;-91
2023/10/05 08:41:16;;;;;;;10.27;9.27;;;14.00;95.20;;;;;;5157796;23;20237;-94
2023/10/05 08:43:43;;;;;;;14.05;12.88;;;14.20;95.20;;;;;;4989932;28;20194;-92
2023/10/05 08:46:14;;;;;;;14.18;12.90;;;14.10;95.20;;;;;;4996886;28;20170;-91
2023/10/05 08:48:41;;;;;;;8.77;7.95;;;14.20;95.20;;;;;;4996751;28;20185;-91
2023/10/05 08:51:11;;;;;;;8.60;8.10;;;14.20;95.20;;;;;;4996629;28;20188;-91
2023/10/05 08:53:43;;;;;;;14.80;13.60;;;14.30;95.20;;;;;;4997551;28;20174;-93
2023/10/05 08:56:13;;;;;;;15.02;13.88;;;14.30;95.10;;;;;;4999540;28;20162;-94
2023/10/05 08:58:44;;;;;;;8.82;8.32;;;14.40;95.10;;;;;;4996973;28;20863;-93
2023/10/05 09:01:43;;;;;;;8.93;8.32;;;14.50;95.10;;;;;;4997629;28;20174;-92
2023/10/05 09:06:57;;;;;;;11.25;8.45;;;14.90;95.10;;;;;;4999826;28;20228;-92
2023/10/05 09:09:39;;;;;;;10.30;8.45;;;14.90;95.00;;;;;;4997412;28;20545;-93
2023/10/05 09:12:34;;;;;;;13.40;9.35;;;15.00;94.90;;;;;;4997622;28;20626;-92
2023/10/05 09:17:56;;;;;;;11.00;9.45;;;14.90;94.70;;;;;;4998593;28;20201;-91
2023/10/05 09:20:33;;;;;;;9.68;8.65;;;15.20;94.80;;;;;;4997265;28;20605;-92
2023/10/05 09:23:03;;;;;;;13.13;9.00;;;15.20;94.60;;;;;;4995951;28;20161;-92
2023/10/05 09:25:34;;;;;;;12.60;9.05;;;15.30;94.60;;;;;;4995243;28;20293;-92
2023/10/05 09:28:10;;;;;;;11.15;9.13;;;15.30;94.10;;;;;;4996320;28;20178;-93
2023/10/05 09:30:55;;;;;;;16.83;9.60;;;15.50;94.40;;;;;;4996427;28;20264;-91
2023/10/05 09:33:26;;;;;;;14.00;8.38;;;15.70;94.20;;;;;;5000362;28;20220;-92
2023/10/05 09:36:01;;;;;;;13.23;8.57;;;15.70;94.00;;;;;;4997815;28;20288;-90
2023/10/05 09:38:29;;;;;;;13.25;8.30;;;15.80;93.80;;;;;;4998690;28;20191;-90
2023/10/05 09:40:56;;;;;;;13.52;8.50;;;15.80;93.30;;;;;;4996671;28;20193;-91
2023/10/05 09:43:30;;;;;;;14.25;8.98;;;16.00;93.00;;;;;;4996984;28;20166;-90
2023/10/05 09:45:57;;;;;;;13.70;8.50;;;16.20;92.80;;;;;;4995299;28;20189;-90
2023/10/05 09:48:24;;;;;;;12.68;8.80;;;16.10;92.10;;;;;;4995389;28;20182;-90
2023/10/05 09:50:52;;;;;;;13.32;9.30;;;16.30;91.90;;;;;;4995253;28;20228;-91
2023/10/05 09:53:48;;;;;;;11.35;10.02;;;16.00;90.10;;;;;;4996279;28;20174;-90
2023/10/05 09:56:23;;;;;;;14.57;10.23;;;16.40;91.10;;;;;;4996228;28;20235;-91
2023/10/05 09:58:50;;;;;;;15.65;10.77;;;16.50;90.70;;;;;;4995798;28;20205;-90
2023/10/05 10:01:20;;;;;;;15.20;10.73;;;16.70;90.50;;;;;;4996500;28;20170;-90
2023/10/05 10:03:46;;;;;;;14.52;9.80;;;16.70;89.80;;;;;;4996112;28;20162;-90
2023/10/05 10:06:18;;;;;;;20.35;11.13;;;16.70;89.70;;;;;;4995543;28;20579;-90
2023/10/05 10:08:53;;;;;;;17.20;11.50;;;16.80;89.10;;;;;;4994729;28;20178;-90
2023/10/05 10:11:24;;;;;;;15.52;11.20;;;16.70;87.10;;;;;;4994761;28;20214;-90
2023/10/05 10:14:13;;;;;;;15.85;11.10;;;16.80;87.40;;;;;;4995925;28;20173;-90
2023/10/05 10:16:42;;;;;;;12.95;10.50;;;16.80;87.30;;;;;;4996016;28;20285;-91
2023/10/05 10:19:23;;;;;;;18.17;11.48;;;16.70;87.10;;;;;;4994732;28;20178;-90
2023/10/05 10:21:57;;;;;;;18.65;13.73;;;16.70;87.30;;;;;;4994665;28;20166;-89
2023/10/05 10:24:28;;;;;;;18.52;14.10;;;16.70;85.30;;;;;;4995732;28;20190;-89
2023/10/05 10:27:07;;;;;;;16.50;14.90;;;16.80;84.30;;;;;;4997568;28;20175;-92
2023/10/05 10:29:40;;;;;;;18.00;15.88;;;17.00;82.20;;;;;;4998472;28;20166;-90
2023/10/05 10:32:22;;;;;;;21.65;16.60;;;17.00;82.00;;;;;;4995364;28;20273;-90
2023/10/05 10:34:56;;;;;;;17.35;15.45;;;16.80;79.90;;;;;;5001205;28;20185;-90
2023/10/05 10:37:39;;;;;;;16.70;14.55;;;17.10;79.90;;;;;;5002943;28;20285;-90
2023/10/05 10:43:15;;;;;;;17.95;16.15;;;17.30;81.70;;;;;;4995965;28;20154;-90
2023/10/05 10:45:44;;;;;;;18.40;16.05;;;17.30;79.30;;;;;;4995300;28;20205;-89
2023/10/05 10:48:20;;;;;;;20.88;14.55;;;17.50;80.00;;;;;;4994525;28;20178;-89
2023/10/05 10:50:47;;;;;;;19.85;17.75;;;17.80;80.00;;;;;;4994370;28;20221;-89
2023/10/05 10:53:16;;;;;;;20.30;18.25;;;17.50;75.70;;;;;;4994133;28;20182;-89
2023/10/05 10:55:46;;;;;;;23.77;15.80;;;17.40;76.80;;;;;;4995329;28;20186;-90
2023/10/05 10:58:13;;;;;;;18.80;15.82;;;17.80;77.20;;;;;;4994543;28;20267;-90
2023/10/05 11:00:56;;;;;;;18.70;16.48;;;18.00;77.90;;;;;;4994890;28;20186;-92
2023/10/05 11:03:30;;;;;;;19.88;17.85;;;17.90;76.60;;;;;;4994880;28;20257;-92
2023/10/05 11:05:58;;;;;;;18.98;17.23;;;17.80;73.90;;;;;;4995185;28;20673;-91
2023/10/05 11:08:24;;;;;;;17.92;16.35;;;17.40;74.20;;;;;;4994961;28;20623;-90
2023/10/05 11:11:09;;;;;;;17.98;15.95;;;17.50;76.20;;;;;;4995204;28;20220;-91
2023/10/05 11:13:43;;;;;;;19.30;17.38;;;17.50;75.80;;;;;;4994597;28;20169;-90
2023/10/05 11:16:09;;;;;;;19.95;18.13;;;17.30;73.70;;;;;;4994513;28;20178;-90
2023/10/05 11:18:39;;;;;;;18.20;16.58;;;17.50;74.40;;;;;;4994024;28;20205;-90
2023/10/05 11:21:14;;;;;;;19.48;17.77;;;17.60;75.00;;;;;;4995788;28;20170;-91
2023/10/05 11:23:47;;;;;;;20.42;17.38;;;17.50;71.10;;;;;;4994750;28;20166;-91
2023/10/05 11:26:17;;;;;;;18.85;16.95;;;17.50;71.40;;;;;;4996968;28;20173;-92
2023/10/05 11:28:49;;;;;;;19.25;17.52;;;17.00;73.30;;;;;;4998037;28;20166;-92
2023/10/05 11:31:21;;;;;;;18.88;16.90;;;16.80;73.80;;;;;;4996480;28;20186;-92
2023/10/05 11:33:47;;;;;;;20.27;16.52;;;17.30;74.20;;;;;;4995205;28;20189;-92
2023/10/05 11:36:21;;;;;;;18.73;16.85;;;17.50;73.90;;;;;;4994277;28;20181;-92
2023/10/05 11:39:00;;;;;;;18.40;16.70;;;17.70;73.70;;;;;;4995567;28;20203;-91
2023/10/05 11:41:28;;;;;;;18.10;16.30;;;17.90;73.40;;;;;;4994390;28;20193;-91
2023/10/05 11:43:55;;;;;;;19.42;17.63;;;17.70;72.60;;;;;;4994335;28;20615;-91
2023/10/05 11:46:24;;;;;;;18.50;16.10;;;17.40;73.20;;;;;;4994006;28;20191;-90
2023/10/05 11:48:55;;;;;;;20.77;17.60;;;17.20;74.30;;;;;;4993063;28;20182;-90
2023/10/05 11:51:21;;;;;;;18.45;16.63;;;17.40;74.70;;;;;;4993646;28;20170;-91
2023/10/05 11:53:47;;;;;;;19.05;17.27;;;17.60;73.10;;;;;;4994671;28;20178;-91
2023/10/05 11:56:17;;;;;;;19.13;17.50;;;17.60;71.40;;;;;;4993702;28;20178;-91
2023/10/05 11:58:47;;;;;;;18.92;16.92;;;17.70;71.90;;;;;;4993964;28;20233;-91
2023/10/05 12:01:19;;;;;;;20.20;18.30;;;17.60;70.70;;;;;;4999625;28;20657;-92
2023/10/05 12:03:47;;;;;;;19.65;17.88;;;17.60;67.90;;;;;;4996042;28;20190;-90
2023/10/05 12:06:15;;;;;;;20.05;18.15;;;17.70;69.00;;;;;;4993930;28;20201;-90
2023/10/05 12:08:41;;;;;;;21.17;18.98;;;17.40;69.80;;;;;;4993813;28;20624;-91
2023/10/05 12:11:10;;;;;;;19.42;17.77;;;17.50;70.40;;;;;;4995702;28;20178;-90
2023/10/05 12:13:36;;;;;;;18.67;16.80;;;17.40;69.80;;;;;;4993042;28;20205;-89
2023/10/05 12:16:11;;;;;;;19.75;17.73;;;17.50;71.70;;;;;;4994687;28;20202;-90
2023/10/05 12:18:37;;;;;;;19.20;17.35;;;17.50;70.40;;;;;;4995073;28;20189;-91
2023/10/05 12:21:03;;;;;;;23.08;17.58;;;17.40;71.60;;;;;;4993477;28;20178;-90
2023/10/05 12:23:28;;;;;;;19.73;17.85;;;17.60;69.90;;;;;;4994307;28;20172;-90
2023/10/05 12:25:54;;;;;;;28.17;25.92;;;17.90;68.90;;;;;;4992992;28;20257;-91
2023/10/05 12:28:23;;;;;;;29.85;27.15;;;18.10;69.30;;;;;;4993042;28;20621;-90
2023/10/05 12:30:49;;;;;;;29.75;27.13;;;18.20;67.80;;;;;;4993092;28;20689;-91
2023/10/05 12:33:15;;;;;;;30.35;28.02;;;18.50;68.80;;;;;;4993300;28;20184;-91
2023/10/05 12:35:43;;;;;;;20.60;18.90;;;18.60;68.10;;;;;;4993726;28;20198;-91
2023/10/05 12:38:11;;;;;;;20.80;19.10;;;18.30;66.50;;;;;;4993861;28;20593;-92
2023/10/05 12:40:40;;;;;;;30.40;27.60;;;18.60;65.60;;;;;;4992865;28;20200;-91
2023/10/05 12:43:15;;;;;;;29.80;26.95;;;18.30;67.00;;;;;;4993758;28;20173;-91
2023/10/05 12:45:40;;;;;;;32.38;29.70;;;18.80;67.60;;;;;;4993601;28;20192;-91
2023/10/05 12:48:06;;;;;;;22.27;20.05;;;18.70;66.60;;;;;;4992799;28;20265;-91
2023/10/05 12:50:32;;;;;;;22.08;20.27;;;18.20;66.00;;;;;;4992429;28;20681;-91
2023/10/05 12:52:58;;;;;;;29.77;27.02;;;18.20;65.40;;;;;;4992328;28;20186;-92
2023/10/05 12:55:29;;;;;;;29.10;26.80;;;18.40;67.10;;;;;;4993586;28;20240;-91
2023/10/05 12:57:54;;;;;;;31.02;28.73;;;18.30;67.30;;;;;;4992728;28;20198;-91
2023/10/05 13:00:22;;;;;;;23.60;19.98;;;18.70;67.80;;;;;;4993752;28;20247;-92
2023/10/05 13:02:52;;;;;;;22.10;19.73;;;19.00;66.60;;;;;;4997294;28;20170;-91
2023/10/05 13:05:39;;;;;;;22.10;20.10;;;19.20;66.80;;;;;;4997213;28;20217;-92
2023/10/05 13:08:10;;;;;;;21.70;20.00;;;19.20;67.50;;;;;;4997480;28;20158;-91
2023/10/05 13:10:37;;;;;;;24.27;20.65;;;19.10;66.10;;;;;;4996007;28;20171;-91